Forside
METAR-TAF:

METAR-TAF

Lufthavne :

Kugaaruk, Nunavut, Canada

Breddekreds: 68-32N, længdekreds: 089-49W, højde: 15 m

Aktuelle vejr

Denne rapport blev lavet for 47 minutter siden, kl. 16:00 UTC
Vind 13 kt fra sydsydvest
Temperatur -18°C
Fugtighed 84%
Tryk 1029 hPa
Sigt: 11.3 km
Overskyet i en højde af 1400 ft
let sne

METAR: CYBB 231600Z 21013KT 7SM -SN OVC014 M18/M20 A3038 RMK SC8 SLP292

Tid: 10:47 (16:47 UTC)

Vejrudsigter

Denne rapport blev lavet for 3 timer og 9 minutter siden, kl. 13:38 UTC
Foreløbig gælder fra 23 på 14 UTC til 23 på 23 UTC
Vind 10 kt fra vestsydvest
Sigt: 10 km
Spredte skyer i en højde af 2000 ft
Brudte skyer i en højde af 10000 ft
Midlertidig
fra 23 på 14 UTC til 23 på 23 UTC
Sigt: 8.0 km
Brudte skyer i en højde af 2000 ft
iskrystaller
ændring
fra 23 på 19 UTC til 23 på 21 UTC
Vind 12 kt fra vest

TAF: CYBB 231338Z 2314/2323 24010KT P6SM SCT020 BKN100 TEMPO 2314/2323 5SM IC BKN020 BECMG 2319/2321 26012KT RMK NXT FCST BY 231900Z

Vejrobservationer og prognoser fra mere end 4000 lufthavne (METAR og TAF).

De gule og røde prikker repræsenterer de meteorologiske stationer.

Flyt musen over at se navnet på stationen.

Så klik over at se vejr observationer og prognoser.

At skifte det kort: Klik på de grønne knapper med et sort kors for at zoome ind; på den grønne knap med en bindestreg for at zoome ud; eller på de grønne pile for tilstødende kort.


METAR-TAF: